Nearby METAR Reports

 

KSJC - San Jose, California, USA
Distance from station: NE 14km
Updated: 27/05/2020 11:53
Few Clouds
Few Clouds
 Wind from calm
Wind: Calm
Temperature: 23°C
Dew Point: 12°C
Humidity: 50%
Barometer: 1011.9 hPa
Clouds: Few Clouds
Visibility: 16 km
Cloud details: Few Clouds 2896 m
2020/05/27 14:53 KSJC 271453Z 00000KT 10SM FEW095 23/12 A2988 RMK AO2 SLP118 T02280117 51010
KNUQ - Moffett Nas/Mtn, California, USA
Distance from station: N 14km
Updated: 27/05/2020 10:55
Clear
Clear
 Wind from calm
Wind: Calm
Temperature: 20°C
Dew Point: 15°C
Humidity: 73%
Barometer: 1011.9 hPa
Clouds: Clear
Visibility: 14 km
2020/05/27 13:55 KNUQ 271355Z AUTO 00000KT 9SM CLR 20/15 A2988 RMK AO2
 
KPAO - Palo Alto, California, USA
Distance from station: NNW 23km
Updated: 26/05/2020 19:47
NOT Current
Clear
Clear
 Wind from NNW
Wind: NNW 28 km/h
Temperature: 31°C
Dew Point: 14°C
Humidity: 35%
Barometer: 1010.2 hPa
Clouds: Clear
Visibility: 16 km
2020/05/26 22:47 KPAO 262247Z 33015KT 10SM SKC 31/14 A2983 RMK LAST
KRHV - San Jose/Reid, California, USA
Distance from station: ENE 19km
Updated: 27/05/2020 11:47
Clear
Clear
 Wind from calm
Wind: Calm
Temperature: 22°C
Dew Point: 13°C
Humidity: 57%
Barometer: 1012.2 hPa
Clouds: Clear
Visibility: 16 km
2020/05/27 14:47 KRHV 271447Z 00000KT 10SM SKC 22/13 A2989
 
KOAK - Oakland, California, USA
Distance from station: NNW 50km
Updated: 27/05/2020 11:53
Few Clouds
Few Clouds
 Wind from NW
Wind: NW 9 km/h
Temperature: 21°C
Dew Point: 13°C
Humidity: 60%
Barometer: 1012.2 hPa
Clouds: Few Clouds
Visibility: 16 km
Cloud details: Few Clouds 7620 m
2020/05/27 14:53 KOAK 271453Z 32005KT 10SM FEW250 21/13 A2989 RMK AO2 SLP121 T02060133 51012
KSQL - San Carlos Airpo, California, USA
Distance from station: NW 34km
Updated: 27/05/2020 10:55
Clear
Clear
 Wind from calm
Wind: Calm
Temperature: 19°C
Dew Point: 14°C
Humidity: 73%
Barometer: 1012.2 hPa
Clouds: Clear
Visibility: 13 km
2020/05/27 13:55 KSQL 271355Z AUTO 00000KT 8SM CLR 19/14 A2989 RMK AO2
 
KSFO - San Francisco, California, USA
Distance from station: NW 49km
Updated: 27/05/2020 11:56
Few Clouds
Few Clouds
 Wind from WNW
Wind: WNW 15 km/h
Temperature: 18°C
Dew Point: 11°C
Humidity: 64%
Barometer: 1012.2 hPa
Clouds: Few Clouds
Visibility: 16 km
Cloud details: Few Clouds 6096 m
2020/05/27 14:56 KSFO 271456Z 30008KT 10SM FEW200 18/11 A2989 RMK AO2 SLP121 T01780111 52012
KE16 - San Martin, California, USA
Distance from station: ESE 43km
Updated: 27/05/2020 11:45
Clear
Clear
 Wind from ESE
Wind: ESE 6 km/h
Temperature: 19°C
Dew Point: 10°C
Humidity: 56%
Barometer: 1013.2 hPa
Clouds: Clear
Visibility: 16 km
2020/05/27 14:45 KE16 271445Z AUTO 11003KT 10SM CLR 19/10 A2992 RMK AO2 PWINO PNO
 
KWVI - Watsonville, California, USA
Distance from station: SSE 44km
Updated: 27/05/2020 11:53
Clear
Clear
 Wind from calm
Wind: Calm
Temperature: 18°C
Dew Point: 14°C
Humidity: 78%
Barometer: 1012.9 hPa
Clouds: Clear
Visibility: 16 km
2020/05/27 14:53 KWVI 271453Z AUTO 00000KT 10SM CLR 18/14 A2991 RMK AO2 SLP125 T01830144 51007
KHAF - Half Moon Bay, California, USA
Distance from station: WNW 50km
Updated: 27/05/2020 11:55
Mist, Clear
Mist, Clear
 Wind from NW
Wind: NW 7 km/h
Temperature: 14°C
Dew Point: 12°C
Humidity: 88%
Barometer: 1012.9 hPa
Summary: Mist
Clouds: Clear
Visibility: 6 km
2020/05/27 14:55 KHAF 271455Z AUTO 31004KT 4SM BR CLR 14/12 A2991 RMK AO2
 
KHWD - Hayward, California, USA
Distance from station: N 44km
Updated: 27/05/2020 11:54
Clear
Clear
 Wind from NW
Wind: NW 6 km/h
Temperature: 21°C
Dew Point: 13°C
Humidity: 60%
Barometer: 1011.9 hPa
Clouds: Clear
Visibility: 16 km
2020/05/27 14:54 KHWD 271454Z 31003KT 10SM CLR 21/13 A2988 RMK AO2 SLP127 T02110128 52011
KLVK - Livermore, California, USA
Distance from station: NNE 51km
Updated: 27/05/2020 11:53
Clear
Clear
 Wind from calm
Wind: Calm
Temperature: 23°C
Dew Point: 12°C
Humidity: 50%
Barometer: 1011.9 hPa
Clouds: Clear
Visibility: 16 km
2020/05/27 14:53 KLVK 271453Z AUTO 00000KT 10SM CLR 23/12 A2988 RMK AO2 SLP113 T02330117 52009